sensor_id;sensor_type;location;lat;lon;timestamp;pressure;altitude;pressure_sealevel;temperature;humidity
35892;BME280;21993;42.672;23.296;2023-09-18T00:02:07;95205.09;;;20.07;71.02
35892;BME280;21993;42.672;23.296;2023-09-18T00:04:32;95194.78;;;20.04;71.32
35892;BME280;21993;42.672;23.296;2023-09-18T00:06:59;95182.75;;;20.08;71.16
35892;BME280;21993;42.672;23.296;2023-09-18T00:09:24;95183.56;;;20.09;71.31
35892;BME280;21993;42.672;23.296;2023-09-18T00:11:49;95187.63;;;20.05;70.72
35892;BME280;21993;42.672;23.296;2023-09-18T00:14:15;95186.50;;;19.99;71.37
35892;BME280;21993;42.672;23.296;2023-09-18T00:16:40;95187.63;;;20.05;71.00
35892;BME280;21993;42.672;23.296;2023-09-18T00:19:06;95176.97;;;20.05;70.37
35892;BME280;21993;42.672;23.296;2023-09-18T00:21:34;95180.66;;;20.04;70.60
35892;BME280;21993;42.672;23.296;2023-09-18T00:23:59;95187.91;;;19.95;70.47
35892;BME280;21993;42.672;23.296;2023-09-18T00:26:25;95191.00;;;19.99;70.41
35892;BME280;21993;42.672;23.296;2023-09-18T00:28:50;95186.06;;;19.95;70.36
35892;BME280;21993;42.672;23.296;2023-09-18T00:31:16;95183.38;;;19.95;69.97
35892;BME280;21993;42.672;23.296;2023-09-18T00:33:41;95188.72;;;19.95;70.45
35892;BME280;21993;42.672;23.296;2023-09-18T00:36:07;95186.06;;;19.95;70.05
35892;BME280;21993;42.672;23.296;2023-09-18T00:38:32;95195.78;;;19.88;70.16
35892;BME280;21993;42.672;23.296;2023-09-18T00:40:57;95202.03;;;19.95;69.79
35892;BME280;21993;42.672;23.296;2023-09-18T00:43:23;95197.63;;;19.88;70.04
35892;BME280;21993;42.672;23.296;2023-09-18T00:45:48;95196.31;;;19.84;70.11
35892;BME280;21993;42.672;23.296;2023-09-18T00:48:15;95194.66;;;19.83;70.16
35892;BME280;21993;42.672;23.296;2023-09-18T00:50:42;95197.22;;;19.76;70.21
35892;BME280;21993;42.672;23.296;2023-09-18T00:53:08;95204.22;;;19.77;70.01
35892;BME280;21993;42.672;23.296;2023-09-18T00:55:36;95198.22;;;19.75;70.10
35892;BME280;21993;42.672;23.296;2023-09-18T00:58:02;95207.16;;;19.82;70.27
35892;BME280;21993;42.672;23.296;2023-09-18T01:00:28;95193.25;;;19.72;70.32
35892;BME280;21993;42.672;23.296;2023-09-18T01:02:53;95206.75;;;19.71;70.38
35892;BME280;21993;42.672;23.296;2023-09-18T01:05:19;95210.25;;;19.71;70.39
35892;BME280;21993;42.672;23.296;2023-09-18T01:07:45;95208.59;;;19.70;70.56
35892;BME280;21993;42.672;23.296;2023-09-18T01:10:11;95208.78;;;19.68;70.06
35892;BME280;21993;42.672;23.296;2023-09-18T01:12:51;95214.25;;;19.67;70.47
35892;BME280;21993;42.672;23.296;2023-09-18T01:15:25;95208.09;;;19.66;70.56
35892;BME280;21993;42.672;23.296;2023-09-18T01:17:52;95203.97;;;19.64;70.68
35892;BME280;21993;42.672;23.296;2023-09-18T01:20:18;95211.59;;;19.67;70.60
35892;BME280;21993;42.672;23.296;2023-09-18T01:22:43;95205.50;;;19.58;71.06
35892;BME280;21993;42.672;23.296;2023-09-18T01:25:09;95210.84;;;19.58;70.78
35892;BME280;21993;42.672;23.296;2023-09-18T01:27:34;95197.72;;;19.57;71.13
35892;BME280;21993;42.672;23.296;2023-09-18T01:29:59;95204.69;;;19.58;70.96
35892;BME280;21993;42.672;23.296;2023-09-18T01:32:28;95210.00;;;19.58;71.29
35892;BME280;21993;42.672;23.296;2023-09-18T01:34:56;95213.84;;;19.55;71.32
35892;BME280;21993;42.672;23.296;2023-09-18T01:37:26;95207.34;;;19.58;70.96
35892;BME280;21993;42.672;23.296;2023-09-18T01:39:53;95195.88;;;19.57;70.88
35892;BME280;21993;42.672;23.296;2023-09-18T01:42:19;95212.00;;;19.56;70.71
35892;BME280;21993;42.672;23.296;2023-09-18T01:44:47;95205.84;;;19.55;71.10
35892;BME280;21993;42.672;23.296;2023-09-18T01:47:16;95204.88;;;19.56;70.86
35892;BME280;21993;42.672;23.296;2023-09-18T01:49:42;95213.72;;;19.49;71.53
35892;BME280;21993;42.672;23.296;2023-09-18T01:52:09;95210.41;;;19.47;71.31
35892;BME280;21993;42.672;23.296;2023-09-18T01:54:35;95209.94;;;19.43;71.69
35892;BME280;21993;42.672;23.296;2023-09-18T01:57:01;95204.06;;;19.48;71.44
35892;BME280;21993;42.672;23.296;2023-09-18T01:59:28;95211.88;;;19.49;71.29
35892;BME280;21993;42.672;23.296;2023-09-18T02:01:54;95209.75;;;19.45;71.04
35892;BME280;21993;42.672;23.296;2023-09-18T02:04:20;95219.59;;;19.44;71.04
35892;BME280;21993;42.672;23.296;2023-09-18T02:06:47;95220.41;;;19.45;71.23
35892;BME280;21993;42.672;23.296;2023-09-18T02:09:13;95219.59;;;19.44;71.41
35892;BME280;21993;42.672;23.296;2023-09-18T02:11:40;95215.44;;;19.41;71.71
35892;BME280;21993;42.672;23.296;2023-09-18T02:14:07;95210.00;;;19.35;71.28
35892;BME280;21993;42.672;23.296;2023-09-18T02:16:37;95215.59;;;19.40;71.66
35892;BME280;21993;42.672;23.296;2023-09-18T02:19:03;95214.13;;;19.37;71.13
35892;BME280;21993;42.672;23.296;2023-09-18T02:21:29;95221.66;;;19.34;71.67
35892;BME280;21993;42.672;23.296;2023-09-18T02:23:55;95216.50;;;19.32;71.87
35892;BME280;21993;42.672;23.296;2023-09-18T02:26:22;95218.63;;;19.37;71.49
35892;BME280;21993;42.672;23.296;2023-09-18T02:28:47;95221.66;;;19.34;71.85
35892;BME280;21993;42.672;23.296;2023-09-18T02:31:13;95210.84;;;19.35;71.39
35892;BME280;21993;42.672;23.296;2023-09-18T02:33:40;95215.03;;;19.30;71.61
35892;BME280;21993;42.672;23.296;2023-09-18T02:36:06;95217.88;;;19.28;71.88
35892;BME280;21993;42.672;23.296;2023-09-18T02:38:32;95213.38;;;19.29;71.91
35892;BME280;21993;42.672;23.296;2023-09-18T02:40:58;95213.88;;;19.24;71.84
35892;BME280;21993;42.672;23.296;2023-09-18T02:43:23;95212.53;;;19.28;71.81
35892;BME280;21993;42.672;23.296;2023-09-18T02:45:49;95215.84;;;19.30;72.11
35892;BME280;21993;42.672;23.296;2023-09-18T02:48:15;95219.00;;;19.34;71.89
35892;BME280;21993;42.672;23.296;2023-09-18T02:50:41;95225.22;;;19.26;71.82
35892;BME280;21993;42.672;23.296;2023-09-18T02:53:07;95213.88;;;19.24;71.95
35892;BME280;21993;42.672;23.296;2023-09-18T02:55:41;95217.59;;;19.15;72.33
35892;BME280;21993;42.672;23.296;2023-09-18T02:58:06;95224.25;;;19.19;72.06
35892;BME280;21993;42.672;23.296;2023-09-18T03:00:34;95218.94;;;19.19;72.38
35892;BME280;21993;42.672;23.296;2023-09-18T03:02:59;95225.72;;;19.22;72.06
35892;BME280;21993;42.672;23.296;2023-09-18T03:05:25;95226.59;;;19.14;72.30
35892;BME280;21993;42.672;23.296;2023-09-18T03:07:51;95223.47;;;19.10;72.09
35892;BME280;21993;42.672;23.296;2023-09-18T03:10:16;95227.78;;;19.11;72.60
35892;BME280;21993;42.672;23.296;2023-09-18T03:12:47;95228.97;;;19.09;72.67
35892;BME280;21993;42.672;23.296;2023-09-18T03:15:12;95218.66;;;19.06;73.00
35892;BME280;21993;42.672;23.296;2023-09-18T03:17:38;95211.50;;;19.06;73.06
35892;BME280;21993;42.672;23.296;2023-09-18T03:20:06;95213.97;;;19.08;73.04
35892;BME280;21993;42.672;23.296;2023-09-18T03:22:32;95219.34;;;19.00;73.11
35892;BME280;21993;42.672;23.296;2023-09-18T03:24:57;95213.97;;;19.08;72.74
35892;BME280;21993;42.672;23.296;2023-09-18T03:27:23;95215.47;;;19.10;72.79
35892;BME280;21993;42.672;23.296;2023-09-18T03:29:54;95211.16;;;19.09;72.81
35892;BME280;21993;42.672;23.296;2023-09-18T03:32:19;95211.50;;;19.06;73.03
35892;BME280;21993;42.672;23.296;2023-09-18T03:34:45;95204.84;;;19.10;72.66
35892;BME280;21993;42.672;23.296;2023-09-18T03:37:10;95203.84;;;19.11;72.85
35892;BME280;21993;42.672;23.296;2023-09-18T03:39:35;95204.47;;;19.13;72.72
35892;BME280;21993;42.672;23.296;2023-09-18T03:42:01;95199.34;;;19.12;72.65
35892;BME280;21993;42.672;23.296;2023-09-18T03:44:26;95208.31;;;19.11;72.76
35892;BME280;21993;42.672;23.296;2023-09-18T03:46:52;95192.22;;;19.04;72.99
35892;BME280;21993;42.672;23.296;2023-09-18T03:49:17;95193.38;;;19.10;72.47
35892;BME280;21993;42.672;23.296;2023-09-18T03:51:42;95198.69;;;19.10;72.29
35892;BME280;21993;42.672;23.296;2023-09-18T03:54:09;95196.03;;;19.10;73.05
35892;BME280;21993;42.672;23.296;2023-09-18T03:56:35;95193.06;;;19.05;72.79
35892;BME280;21993;42.672;23.296;2023-09-18T03:59:00;95199.03;;;19.07;73.17
35892;BME280;21993;42.672;23.296;2023-09-18T04:01:27;95204.72;;;19.04;73.09
35892;BME280;21993;42.672;23.296;2023-09-18T04:03:52;95194.25;;;19.02;73.16
35892;BME280;21993;42.672;23.296;2023-09-18T04:06:20;95195.72;;;19.05;72.81
35892;BME280;21993;42.672;23.296;2023-09-18T04:08:46;95192.41;;;19.03;72.85
35892;BME280;21993;42.672;23.296;2023-09-18T04:11:11;95198.91;;;19.00;72.94
35892;BME280;21993;42.672;23.296;2023-09-18T04:13:37;95194.09;;;18.96;73.16
35892;BME280;21993;42.672;23.296;2023-09-18T04:16:04;95202.91;;;18.96;72.96
35892;BME280;21993;42.672;23.296;2023-09-18T04:18:29;95208.94;;;18.90;73.28
35892;BME280;21993;42.672;23.296;2023-09-18T04:20:55;95206.25;;;18.90;73.43
35892;BME280;21993;42.672;23.296;2023-09-18T04:25:47;95210.59;;;18.91;73.57
35892;BME280;21993;42.672;23.296;2023-09-18T04:28:17;95216.72;;;18.92;73.72
35892;BME280;21993;42.672;23.296;2023-09-18T04:30:44;95220.06;;;18.94;73.77
35892;BME280;21993;42.672;23.296;2023-09-18T04:33:10;95213.75;;;18.95;74.42
35892;BME280;21993;42.672;23.296;2023-09-18T04:35:37;95222.59;;;18.87;73.63
35892;BME280;21993;42.672;23.296;2023-09-18T04:38:05;95216.44;;;18.87;74.17
35892;BME280;21993;42.672;23.296;2023-09-18T04:40:31;95221.59;;;18.88;73.99
35892;BME280;21993;42.672;23.296;2023-09-18T04:43:00;95221.41;;;18.90;74.29
35892;BME280;21993;42.672;23.296;2023-09-18T04:45:26;95217.75;;;18.91;74.29
35892;BME280;21993;42.672;23.296;2023-09-18T04:47:53;95215.75;;;18.93;74.12
35892;BME280;21993;42.672;23.296;2023-09-18T04:50:18;95221.53;;;18.96;73.83
35892;BME280;21993;42.672;23.296;2023-09-18T04:52:44;95222.72;;;18.94;74.00
35892;BME280;21993;42.672;23.296;2023-09-18T04:55:10;95221.06;;;18.93;73.94
35892;BME280;21993;42.672;23.296;2023-09-18T04:57:37;95218.06;;;18.96;74.34
35892;BME280;21993;42.672;23.296;2023-09-18T05:00:03;95214.56;;;18.95;74.41
35892;BME280;21993;42.672;23.296;2023-09-18T05:02:33;95217.03;;;18.97;74.27
35892;BME280;21993;42.672;23.296;2023-09-18T05:04:59;95223.00;;;18.99;74.06
35892;BME280;21993;42.672;23.296;2023-09-18T05:07:25;95212.03;;;19.02;73.94
35892;BME280;21993;42.672;23.296;2023-09-18T05:09:50;95214.72;;;19.02;74.25
35892;BME280;21993;42.672;23.296;2023-09-18T05:12:16;95218.38;;;19.01;73.81
35892;BME280;21993;42.672;23.296;2023-09-18T05:14:42;95216.88;;;18.98;74.00
35892;BME280;21993;42.672;23.296;2023-09-18T05:17:15;95220.84;;;19.02;74.46
35892;BME280;21993;42.672;23.296;2023-09-18T05:19:41;95226.47;;;19.07;74.09
35892;BME280;21993;42.672;23.296;2023-09-18T05:22:08;95225.59;;;19.15;73.70
35892;BME280;21993;42.672;23.296;2023-09-18T05:24:35;95231.75;;;19.16;73.78
35892;BME280;21993;42.672;23.296;2023-09-18T05:27:01;95229.75;;;19.18;73.90
35892;BME280;21993;42.672;23.296;2023-09-18T05:29:28;95227.25;;;19.16;74.70
35892;BME280;21993;42.672;23.296;2023-09-18T05:31:53;95234.16;;;19.25;73.65
35892;BME280;21993;42.672;23.296;2023-09-18T05:34:18;95238.78;;;19.31;73.48
35892;BME280;21993;42.672;23.296;2023-09-18T05:36:44;95239.44;;;19.33;73.29
35892;BME280;21993;42.672;23.296;2023-09-18T05:39:09;95228.75;;;19.41;73.14
35892;BME280;21993;42.672;23.296;2023-09-18T05:41:38;95233.56;;;19.46;72.85
35892;BME280;21993;42.672;23.296;2023-09-18T05:44:04;95234.00;;;19.50;73.14
35892;BME280;21993;42.672;23.296;2023-09-18T05:46:30;95236.34;;;19.53;72.54
35892;BME280;21993;42.672;23.296;2023-09-18T05:48:56;95234.31;;;19.55;72.72
35892;BME280;21993;42.672;23.296;2023-09-18T05:51:22;95245.97;;;19.54;72.84
35892;BME280;21993;42.672;23.296;2023-09-18T05:53:48;95240.44;;;19.63;72.16
35892;BME280;21993;42.672;23.296;2023-09-18T05:56:14;95233.03;;;19.74;71.38
35892;BME280;21993;42.672;23.296;2023-09-18T05:58:42;95232.31;;;19.80;71.16
35892;BME280;21993;42.672;23.296;2023-09-18T06:01:07;95235.56;;;19.67;71.92
35892;BME280;21993;42.672;23.296;2023-09-18T06:03:33;95232.16;;;19.58;72.30
35892;BME280;21993;42.672;23.296;2023-09-18T06:06:02;95232.09;;;19.66;72.60
35892;BME280;21993;42.672;23.296;2023-09-18T06:08:28;95228.91;;;19.71;72.41
35892;BME280;21993;42.672;23.296;2023-09-18T06:10:54;95236.00;;;19.79;71.78
35892;BME280;21993;42.672;23.296;2023-09-18T06:13:20;95232.63;;;19.85;71.52
35892;BME280;21993;42.672;23.296;2023-09-18T06:15:46;95237.78;;;19.86;71.46
35892;BME280;21993;42.672;23.296;2023-09-18T06:18:11;95229.13;;;19.84;71.54
35892;BME280;21993;42.672;23.296;2023-09-18T06:20:37;95229.03;;;19.92;71.11
35892;BME280;21993;42.672;23.296;2023-09-18T06:23:02;95235.44;;;19.83;71.50
35892;BME280;21993;42.672;23.296;2023-09-18T06:25:29;95236.81;;;20.02;70.85
35892;BME280;21993;42.672;23.296;2023-09-18T06:27:56;95245.44;;;20.04;70.70
35892;BME280;21993;42.672;23.296;2023-09-18T06:30:22;95234.59;;;20.06;70.76
35892;BME280;21993;42.672;23.296;2023-09-18T06:32:47;95245.56;;;20.11;70.23
35892;BME280;21993;42.672;23.296;2023-09-18T06:35:13;95239.41;;;20.10;70.73
35892;BME280;21993;42.672;23.296;2023-09-18T06:37:38;95243.03;;;20.09;70.51
35892;BME280;21993;42.672;23.296;2023-09-18T06:40:04;95246.06;;;20.06;71.03
35892;BME280;21993;42.672;23.296;2023-09-18T06:42:31;95242.88;;;20.11;70.19
35892;BME280;21993;42.672;23.296;2023-09-18T06:44:56;95238.50;;;20.18;70.83
35892;BME280;21993;42.672;23.296;2023-09-18T06:47:22;95239.91;;;20.06;71.03
35892;BME280;21993;42.672;23.296;2023-09-18T06:49:49;95236.28;;;20.21;70.59
35892;BME280;21993;42.672;23.296;2023-09-18T06:52:15;95242.25;;;20.23;70.43
35892;BME280;21993;42.672;23.296;2023-09-18T06:54:40;95236.91;;;20.23;70.32
35892;BME280;21993;42.672;23.296;2023-09-18T06:57:06;95235.91;;;20.24;70.82
35892;BME280;21993;42.672;23.296;2023-09-18T06:59:31;95240.31;;;20.32;70.33
35892;BME280;21993;42.672;23.296;2023-09-18T07:01:59;95230.16;;;20.50;69.29
35892;BME280;21993;42.672;23.296;2023-09-18T07:04:25;95231.56;;;20.46;69.28
35892;BME280;21993;42.672;23.296;2023-09-18T07:06:50;95241.84;;;20.64;68.16
35892;BME280;21993;42.672;23.296;2023-09-18T07:09:18;95231.28;;;20.56;68.50
35892;BME280;21993;42.672;23.296;2023-09-18T07:11:43;95229.53;;;20.48;69.27
35892;BME280;21993;42.672;23.296;2023-09-18T07:14:09;95232.34;;;20.76;68.33
35892;BME280;21993;42.672;23.296;2023-09-18T07:16:34;95231.53;;;20.76;67.80
35892;BME280;21993;42.672;23.296;2023-09-18T07:19:00;95232.81;;;20.80;68.25
35892;BME280;21993;42.672;23.296;2023-09-18T07:21:27;95230.78;;;20.82;67.55
35892;BME280;21993;42.672;23.296;2023-09-18T07:23:54;95238.44;;;20.85;67.87
35892;BME280;21993;42.672;23.296;2023-09-18T07:26:19;95239.50;;;21.05;66.84
35892;BME280;21993;42.672;23.296;2023-09-18T07:28:45;95238.50;;;21.06;66.85
35892;BME280;21993;42.672;23.296;2023-09-18T07:31:11;95241.91;;;21.00;67.08
35892;BME280;21993;42.672;23.296;2023-09-18T07:33:37;95249.38;;;21.05;67.25
35892;BME280;21993;42.672;23.296;2023-09-18T07:36:03;95241.50;;;21.18;66.54
35892;BME280;21993;42.672;23.296;2023-09-18T07:38:29;95242.97;;;21.21;66.66
35892;BME280;21993;42.672;23.296;2023-09-18T07:40:54;95239.91;;;21.24;66.29
35892;BME280;21993;42.672;23.296;2023-09-18T07:43:21;95241.06;;;21.29;67.07
35892;BME280;21993;42.672;23.296;2023-09-18T07:45:49;95240.56;;;21.41;66.83
35892;BME280;21993;42.672;23.296;2023-09-18T07:48:14;95229.81;;;21.55;65.92
35892;BME280;21993;42.672;23.296;2023-09-18T07:50:43;95240.88;;;21.74;65.02
35892;BME280;21993;42.672;23.296;2023-09-18T07:53:09;95238.16;;;21.88;64.43
35892;BME280;21993;42.672;23.296;2023-09-18T07:55:34;95228.38;;;22.24;63.02
35892;BME280;21993;42.672;23.296;2023-09-18T07:58:00;95227.69;;;22.15;62.75
35892;BME280;21993;42.672;23.296;2023-09-18T08:00:25;95231.34;;;22.07;64.01
35892;BME280;21993;42.672;23.296;2023-09-18T08:02:53;95233.63;;;22.10;63.33
35892;BME280;21993;42.672;23.296;2023-09-18T08:05:21;95235.03;;;22.34;62.19
35892;BME280;21993;42.672;23.296;2023-09-18T08:07:46;95231.38;;;22.42;61.68
35892;BME280;21993;42.672;23.296;2023-09-18T08:10:13;95231.19;;;22.43;62.27
35892;BME280;21993;42.672;23.296;2023-09-18T08:12:38;95221.66;;;22.69;60.94
35892;BME280;21993;42.672;23.296;2023-09-18T08:15:04;95232.16;;;22.64;61.16
35892;BME280;21993;42.672;23.296;2023-09-18T08:17:31;95221.00;;;22.60;61.83
35892;BME280;21993;42.672;23.296;2023-09-18T08:19:56;95225.44;;;22.81;60.57
35892;BME280;21993;42.672;23.296;2023-09-18T08:22:23;95218.94;;;22.90;60.38
35892;BME280;21993;42.672;23.296;2023-09-18T08:24:49;95216.47;;;22.89;60.73
35892;BME280;21993;42.672;23.296;2023-09-18T08:27:18;95208.53;;;23.15;59.50
35892;BME280;21993;42.672;23.296;2023-09-18T08:29:45;95215.09;;;23.06;59.92
35892;BME280;21993;42.672;23.296;2023-09-18T08:32:10;95214.72;;;23.16;60.07
35892;BME280;21993;42.672;23.296;2023-09-18T08:34:36;95211.22;;;23.28;59.49
35892;BME280;21993;42.672;23.296;2023-09-18T08:37:02;95211.88;;;23.30;59.04
35892;BME280;21993;42.672;23.296;2023-09-18T08:39:29;95203.03;;;23.43;59.00
35892;BME280;21993;42.672;23.296;2023-09-18T08:41:59;95206.16;;;23.47;59.10
35892;BME280;21993;42.672;23.296;2023-09-18T08:44:26;95199.56;;;23.56;57.98
35892;BME280;21993;42.672;23.296;2023-09-18T08:46:53;95189.28;;;23.66;58.83
35892;BME280;21993;42.672;23.296;2023-09-18T08:49:22;95190.53;;;23.83;57.49
35892;BME280;21993;42.672;23.296;2023-09-18T08:51:49;95186.41;;;23.87;57.53
35892;BME280;21993;42.672;23.296;2023-09-18T08:54:15;95182.69;;;23.95;56.50
35892;BME280;21993;42.672;23.296;2023-09-18T08:56:41;95192.00;;;23.99;56.54
35892;BME280;21993;42.672;23.296;2023-09-18T08:59:06;95188.66;;;24.04;56.15
35892;BME280;21993;42.672;23.296;2023-09-18T09:01:32;95180.63;;;24.17;55.64
35892;BME280;21993;42.672;23.296;2023-09-18T09:03:57;95186.38;;;24.27;55.53
35892;BME280;21993;42.672;23.296;2023-09-18T09:06:23;95179.16;;;24.28;55.39
35892;BME280;21993;42.672;23.296;2023-09-18T09:08:49;95182.06;;;24.26;56.29
35892;BME280;21993;42.672;23.296;2023-09-18T09:11:15;95182.69;;;24.35;55.00
35892;BME280;21993;42.672;23.296;2023-09-18T09:13:40;95186.59;;;24.46;54.74
35892;BME280;21993;42.672;23.296;2023-09-18T09:16:05;95190.50;;;24.56;53.64
35892;BME280;21993;42.672;23.296;2023-09-18T09:18:47;95174.22;;;24.45;54.60
35892;BME280;21993;42.672;23.296;2023-09-18T09:21:13;95169.66;;;24.45;54.90
35892;BME280;21993;42.672;23.296;2023-09-18T09:26:17;95162.56;;;24.70;53.24
35892;BME280;21993;42.672;23.296;2023-09-18T09:28:44;95166.06;;;24.78;53.02
35892;BME280;21993;42.672;23.296;2023-09-18T09:31:10;95168.75;;;24.78;53.18
35892;BME280;21993;42.672;23.296;2023-09-18T09:33:50;95161.22;;;25.06;51.12
35892;BME280;21993;42.672;23.296;2023-09-18T09:36:19;95153.56;;;25.10;49.83
35892;BME280;21993;42.672;23.296;2023-09-18T09:38:44;95162.47;;;24.97;50.48
35892;BME280;21993;42.672;23.296;2023-09-18T09:41:13;95159.00;;;24.90;51.15
35892;BME280;21993;42.672;23.296;2023-09-18T09:43:41;95164.94;;;25.05;50.82
35892;BME280;21993;42.672;23.296;2023-09-18T09:46:15;95167.88;;;24.90;50.91
35892;BME280;21993;42.672;23.296;2023-09-18T09:48:57;95163.81;;;25.26;49.27
35892;BME280;21993;42.672;23.296;2023-09-18T09:51:24;95157.84;;;25.17;49.89
35892;BME280;21993;42.672;23.296;2023-09-18T09:53:50;95146.69;;;25.14;49.82
35892;BME280;21993;42.672;23.296;2023-09-18T09:56:16;95140.91;;;25.17;49.77
35892;BME280;21993;42.672;23.296;2023-09-18T09:59:00;95154.25;;;25.30;50.34
35892;BME280;21993;42.672;23.296;2023-09-18T10:01:27;95142.81;;;25.48;48.95
35892;BME280;21993;42.672;23.296;2023-09-18T10:03:54;95143.00;;;25.46;49.61
35892;BME280;21993;42.672;23.296;2023-09-18T10:06:21;95135.47;;;25.55;49.04
35892;BME280;21993;42.672;23.296;2023-09-18T10:08:47;95140.25;;;25.53;49.20
35892;BME280;21993;42.672;23.296;2023-09-18T10:11:13;95130.78;;;25.50;48.76
35892;BME280;21993;42.672;23.296;2023-09-18T10:13:55;95147.69;;;25.58;48.91
35892;BME280;21993;42.672;23.296;2023-09-18T10:16:23;95140.78;;;25.68;48.43
35892;BME280;21993;42.672;23.296;2023-09-18T10:21:52;95128.56;;;25.72;47.99
35892;BME280;21993;42.672;23.296;2023-09-18T10:24:28;95129.78;;;25.70;48.44
35892;BME280;21993;42.672;23.296;2023-09-18T10:26:56;95132.25;;;25.78;48.43
35892;BME280;21993;42.672;23.296;2023-09-18T10:29:24;95118.75;;;25.85;47.85
35892;BME280;21993;42.672;23.296;2023-09-18T10:31:50;95112.69;;;25.89;47.96
35892;BME280;21993;42.672;23.296;2023-09-18T10:34:17;95106.22;;;25.97;47.85
35892;BME280;21993;42.672;23.296;2023-09-18T10:36:47;95094.34;;;26.04;47.68
35892;BME280;21993;42.672;23.296;2023-09-18T10:39:13;95100.72;;;26.10;47.84
35892;BME280;21993;42.672;23.296;2023-09-18T10:41:39;95101.06;;;26.14;47.19
35892;BME280;21993;42.672;23.296;2023-09-18T10:44:07;95099.63;;;26.36;47.07
35892;BME280;21993;42.672;23.296;2023-09-18T10:46:33;95091.03;;;26.46;46.33
35892;BME280;21993;42.672;23.296;2023-09-18T10:49:00;95088.84;;;26.36;45.85
35892;BME280;21993;42.672;23.296;2023-09-18T10:51:26;95089.31;;;26.33;46.94
35892;BME280;21993;42.672;23.296;2023-09-18T10:53:52;95093.59;;;26.59;45.75
35892;BME280;21993;42.672;23.296;2023-09-18T10:56:21;95089.25;;;26.58;44.30
35892;BME280;21993;42.672;23.296;2023-09-18T10:58:55;95077.03;;;26.55;43.98
35892;BME280;21993;42.672;23.296;2023-09-18T11:01:23;95085.91;;;26.37;45.14
35892;BME280;21993;42.672;23.296;2023-09-18T11:03:50;95073.91;;;26.40;45.55
35892;BME280;21993;42.672;23.296;2023-09-18T11:06:15;95071.88;;;26.35;45.54
35892;BME280;21993;42.672;23.296;2023-09-18T11:08:48;95071.50;;;26.32;45.10
35892;BME280;21993;42.672;23.296;2023-09-18T11:11:15;95076.28;;;26.30;45.32
35892;BME280;21993;42.672;23.296;2023-09-18T11:18:52;95056.94;;;26.40;44.50
35892;BME280;21993;42.672;23.296;2023-09-18T11:21:23;95059.28;;;26.29;45.37
35892;BME280;21993;42.672;23.296;2023-09-18T11:24:04;95061.03;;;26.24;45.05
35892;BME280;21993;42.672;23.296;2023-09-18T11:26:31;95058.41;;;26.35;44.74
35892;BME280;21993;42.672;23.296;2023-09-18T11:29:05;95057.69;;;26.47;44.58
35892;BME280;21993;42.672;23.296;2023-09-18T11:34:19;95043.00;;;26.61;44.26
35892;BME280;21993;42.672;23.296;2023-09-18T11:36:45;95046.22;;;26.70;44.27
35892;BME280;21993;42.672;23.296;2023-09-18T11:39:12;95045.97;;;26.71;44.08
35892;BME280;21993;42.672;23.296;2023-09-18T11:41:38;95048.94;;;26.81;43.31
35892;BME280;21993;42.672;23.296;2023-09-18T11:46:39;95028.34;;;26.87;43.27
35892;BME280;21993;42.672;23.296;2023-09-18T11:49:10;95035.97;;;26.90;44.03
35892;BME280;21993;42.672;23.296;2023-09-18T11:51:36;95022.88;;;26.93;43.21
35892;BME280;21993;42.672;23.296;2023-09-18T11:54:02;95028.91;;;27.07;42.35
35892;BME280;21993;42.672;23.296;2023-09-18T11:56:29;95022.59;;;27.13;42.67
35892;BME280;21993;42.672;23.296;2023-09-18T11:58:55;95022.69;;;27.07;42.84
35892;BME280;21993;42.672;23.296;2023-09-18T12:01:21;95018.75;;;27.09;42.98
35892;BME280;21993;42.672;23.296;2023-09-18T12:03:53;95017.53;;;27.05;42.83
35892;BME280;21993;42.672;23.296;2023-09-18T12:06:20;95020.38;;;27.10;42.82
35892;BME280;21993;42.672;23.296;2023-09-18T12:08:46;95024.00;;;27.04;42.53
35892;BME280;21993;42.672;23.296;2023-09-18T12:11:12;95023.31;;;27.09;42.13
35892;BME280;21993;42.672;23.296;2023-09-18T12:13:42;95022.28;;;26.91;42.97
35892;BME280;21993;42.672;23.296;2023-09-18T12:16:08;95020.03;;;26.88;43.48
35892;BME280;21993;42.672;23.296;2023-09-18T12:18:35;95012.69;;;26.96;43.12
35892;BME280;21993;42.672;23.296;2023-09-18T12:21:05;95007.06;;;26.97;42.80
35892;BME280;21993;42.672;23.296;2023-09-18T12:23:37;95010.13;;;27.01;42.88
35892;BME280;21993;42.672;23.296;2023-09-18T12:26:04;95017.78;;;27.15;43.01
35892;BME280;21993;42.672;23.296;2023-09-18T12:28:33;95004.94;;;27.17;42.87
35892;BME280;21993;42.672;23.296;2023-09-18T12:30:58;95011.56;;;27.03;43.57
35892;BME280;21993;42.672;23.296;2023-09-18T12:33:24;95003.09;;;27.00;43.76
35892;BME280;21993;42.672;23.296;2023-09-18T12:35:50;95012.75;;;27.07;43.53
35892;BME280;21993;42.672;23.296;2023-09-18T12:38:18;95011.56;;;27.03;43.72
35892;BME280;21993;42.672;23.296;2023-09-18T12:40:50;95015.56;;;27.12;43.45
35892;BME280;21993;42.672;23.296;2023-09-18T12:43:17;95008.88;;;27.15;43.38
35892;BME280;21993;42.672;23.296;2023-09-18T12:45:43;95009.47;;;27.05;44.21
35892;BME280;21993;42.672;23.296;2023-09-18T12:48:11;95002.81;;;27.08;44.27
35892;BME280;21993;42.672;23.296;2023-09-18T12:50:37;95002.78;;;26.78;44.24
35892;BME280;21993;42.672;23.296;2023-09-18T12:53:10;94989.81;;;26.86;44.78
35892;BME280;21993;42.672;23.296;2023-09-18T12:55:36;94996.34;;;26.79;44.89
35892;BME280;21993;42.672;23.296;2023-09-18T12:58:02;94996.16;;;26.62;45.18
35892;BME280;21993;42.672;23.296;2023-09-18T13:00:32;94995.19;;;26.75;44.57
35892;BME280;21993;42.672;23.296;2023-09-18T13:02:58;94997.97;;;26.80;44.58
35892;BME280;21993;42.672;23.296;2023-09-18T13:05:24;94990.41;;;26.88;44.58
35892;BME280;21993;42.672;23.296;2023-09-18T13:08:02;94994.63;;;26.96;44.18